createdAt,value
2022-11-26T00:00:57.735Z,100.00
2022-11-26T00:03:26.808Z,100.00
2022-11-26T00:05:57.378Z,100.00
2022-11-26T00:08:29.619Z,100.00
2022-11-26T00:10:57.801Z,100.00
2022-11-26T00:13:28.923Z,100.00
2022-11-26T00:15:57.806Z,100.00
2022-11-26T00:18:26.794Z,100.00
2022-11-26T00:20:57.329Z,100.00
2022-11-26T00:23:28.417Z,100.00
2022-11-26T00:25:58.266Z,100.00
2022-11-26T00:28:30.690Z,100.00
2022-11-26T00:31:01.878Z,100.00
2022-11-26T00:33:30.871Z,100.00
2022-11-26T00:36:02.701Z,100.00
2022-11-26T00:38:31.694Z,100.00
2022-11-26T00:40:59.951Z,100.00
2022-11-26T00:43:29.145Z,100.00
2022-11-26T00:45:57.039Z,100.00
2022-11-26T00:48:24.980Z,100.00
2022-11-26T00:50:52.953Z,100.00
2022-11-26T00:53:23.602Z,100.00
2022-11-26T00:55:52.411Z,100.00
2022-11-26T00:58:24.393Z,100.00
2022-11-26T01:00:54.926Z,100.00
2022-11-26T01:03:22.832Z,100.00
2022-11-26T01:05:51.792Z,100.00
2022-11-26T01:08:29.969Z,100.00
2022-11-26T01:10:58.483Z,100.00
2022-11-26T01:13:28.662Z,100.00
2022-11-26T01:16:00.489Z,100.00
2022-11-26T01:18:29.111Z,100.00
2022-11-26T01:20:56.939Z,100.00
2022-11-26T01:23:24.844Z,100.00
2022-11-26T01:25:52.927Z,100.00
2022-11-26T01:28:20.826Z,100.00
2022-11-26T01:30:48.786Z,100.00
2022-11-26T01:33:17.990Z,100.00
2022-11-26T01:35:45.929Z,100.00
2022-11-26T01:38:15.437Z,100.00
2022-11-26T01:40:55.562Z,100.00
2022-11-26T01:43:28.022Z,100.00
2022-11-26T01:45:59.280Z,100.00
2022-11-26T01:48:31.682Z,100.00
2022-11-26T01:51:03.069Z,100.00
2022-11-26T01:53:42.002Z,100.00
2022-11-26T01:56:19.866Z,100.00
2022-11-26T01:58:50.706Z,100.00
2022-11-26T02:01:20.248Z,100.00
2022-11-26T02:03:57.116Z,100.00
2022-11-26T02:06:31.069Z,100.00
2022-11-26T02:09:00.842Z,100.00
2022-11-26T02:11:29.210Z,100.00
2022-11-26T02:14:00.626Z,100.00
2022-11-26T02:17:14.637Z,100.00
2022-11-26T02:20:20.593Z,100.00
2022-11-26T02:23:21.899Z,100.00
2022-11-26T02:26:24.282Z,100.00
2022-11-26T02:29:23.918Z,100.00
2022-11-26T02:32:00.290Z,100.00
2022-11-26T02:34:37.711Z,100.00
2022-11-26T02:37:10.942Z,100.00
2022-11-26T02:39:38.898Z,100.00
2022-11-26T02:42:24.038Z,100.00
2022-11-26T02:44:52.605Z,100.00
2022-11-26T02:47:24.781Z,100.00
2022-11-26T02:49:53.680Z,100.00
2022-11-26T02:52:23.513Z,100.00
2022-11-26T02:54:53.995Z,100.00
2022-11-26T02:57:26.546Z,100.00
2022-11-26T02:59:54.690Z,100.00
2022-11-26T03:02:30.045Z,100.00
2022-11-26T03:05:01.988Z,100.00
2022-11-26T03:07:31.946Z,100.00
2022-11-26T03:10:02.596Z,100.00
2022-11-26T03:12:30.678Z,100.00
2022-11-26T03:14:58.891Z,100.00
2022-11-26T03:17:28.079Z,100.00
2022-11-26T03:19:55.940Z,100.00
2022-11-26T03:22:24.170Z,100.00
2022-11-26T03:24:52.061Z,100.00
2022-11-26T03:27:19.972Z,100.00
2022-11-26T03:29:47.818Z,100.00
2022-11-26T03:32:15.914Z,100.00
2022-11-26T03:34:45.187Z,100.00
2022-11-26T03:37:13.158Z,100.00
2022-11-26T03:39:41.099Z,100.00
2022-11-26T03:42:09.218Z,100.00
2022-11-26T03:44:37.957Z,100.00
2022-11-26T03:47:06.175Z,100.00
2022-11-26T03:49:34.793Z,100.00
2022-11-26T03:52:04.129Z,100.00
2022-11-26T03:54:32.004Z,100.00
2022-11-26T03:56:59.922Z,100.00
2022-11-26T03:59:27.923Z,100.00
2022-11-26T04:01:55.829Z,100.00
2022-11-26T04:04:23.784Z,100.00
2022-11-26T04:06:51.652Z,100.00
2022-11-26T04:09:20.865Z,100.00
2022-11-26T04:11:48.721Z,100.00
2022-11-26T04:14:16.707Z,100.00
2022-11-26T04:16:44.657Z,100.00
2022-11-26T04:19:15.163Z,100.00
2022-11-26T04:21:42.987Z,100.00
2022-11-26T04:24:10.841Z,100.00
2022-11-26T04:26:40.174Z,100.00
2022-11-26T04:29:13.958Z,100.00
2022-11-26T04:31:41.840Z,100.00
2022-11-26T04:34:09.740Z,100.00
2022-11-26T04:36:39.340Z,100.00
2022-11-26T04:39:07.294Z,100.00
2022-11-26T04:41:35.163Z,100.00
2022-11-26T04:44:04.437Z,100.00
2022-11-26T04:46:32.311Z,100.00
2022-11-26T04:49:00.234Z,100.00
2022-11-26T04:51:28.220Z,100.00
2022-11-26T04:53:56.254Z,100.00
2022-11-26T04:56:25.126Z,100.00
2022-11-26T04:58:52.962Z,100.00
2022-11-26T05:01:22.232Z,100.00
2022-11-26T05:03:50.660Z,100.00
2022-11-26T05:06:18.500Z,100.00
2022-11-26T05:08:46.327Z,100.00
2022-11-26T05:11:14.233Z,100.00
2022-11-26T05:13:42.096Z,100.00
2022-11-26T05:16:10.543Z,100.00
2022-11-26T05:18:39.821Z,100.00
2022-11-26T05:21:08.022Z,100.00
2022-11-26T05:23:35.996Z,100.00
2022-11-26T05:26:03.836Z,100.00
2022-11-26T05:28:31.717Z,100.00
2022-11-26T05:31:00.870Z,100.00
2022-11-26T05:33:29.149Z,100.00
2022-11-26T05:35:58.670Z,100.00
2022-11-26T05:38:26.649Z,100.00
2022-11-26T05:40:54.476Z,100.00
2022-11-26T05:43:22.386Z,100.00
2022-11-26T05:45:50.655Z,100.00
2022-11-26T05:48:18.593Z,100.00
2022-11-26T05:50:50.227Z,100.00
2022-11-26T05:53:23.487Z,100.00
2022-11-26T05:55:51.293Z,100.00
2022-11-26T05:58:20.030Z,100.00
2022-11-26T06:00:47.944Z,100.00
2022-11-26T06:03:20.129Z,100.00
2022-11-26T06:05:48.682Z,100.00
2022-11-26T06:08:16.487Z,100.00
2022-11-26T06:10:46.133Z,100.00
2022-11-26T06:13:14.187Z,100.00
2022-11-26T06:15:42.047Z,100.00
2022-11-26T06:18:10.184Z,100.00
2022-11-26T06:20:38.297Z,100.00
2022-11-26T06:23:06.986Z,100.00
2022-11-26T06:25:34.864Z,100.00
2022-11-26T06:28:04.113Z,100.00
2022-11-26T06:30:32.012Z,100.00
2022-11-26T06:32:59.898Z,100.00
2022-11-26T06:35:27.782Z,100.00
2022-11-26T06:37:56.993Z,100.00
2022-11-26T06:40:24.803Z,100.00
2022-11-26T06:42:54.377Z,100.00
2022-11-26T06:45:24.958Z,100.00
2022-11-26T06:47:53.323Z,100.00
2022-11-26T06:50:24.393Z,100.00
2022-11-26T06:52:53.437Z,100.00
2022-11-26T06:55:21.564Z,100.00
2022-11-26T06:57:50.882Z,100.00
2022-11-26T07:00:19.192Z,100.00
2022-11-26T07:02:51.317Z,100.00
2022-11-26T07:05:19.861Z,100.00
2022-11-26T07:07:49.083Z,100.00
2022-11-26T07:10:18.387Z,100.00
2022-11-26T07:12:48.751Z,100.00
2022-11-26T07:15:16.657Z,100.00
2022-11-26T07:17:44.484Z,100.00
2022-11-26T07:20:15.246Z,100.00
2022-11-26T07:22:43.109Z,100.00
2022-11-26T07:25:12.937Z,100.00
2022-11-26T07:27:41.301Z,100.00
2022-11-26T07:30:11.237Z,100.00
2022-11-26T07:32:42.734Z,100.00
2022-11-26T07:35:10.622Z,100.00
2022-11-26T07:37:40.070Z,100.00
2022-11-26T07:40:11.538Z,100.00
2022-11-26T07:42:39.372Z,100.00
2022-11-26T07:45:08.543Z,100.00
2022-11-26T07:47:36.686Z,100.00
2022-11-26T07:50:10.611Z,100.00
2022-11-26T07:52:39.840Z,100.00
2022-11-26T07:55:12.828Z,100.00
2022-11-26T07:57:43.675Z,100.00
2022-11-26T08:00:16.421Z,100.00
2022-11-26T08:02:46.105Z,100.00
2022-11-26T08:05:14.850Z,100.00
2022-11-26T08:07:49.977Z,100.00
2022-11-26T08:10:20.223Z,100.00
2022-11-26T08:12:56.625Z,100.00
2022-11-26T08:15:24.542Z,100.00
2022-11-26T08:18:31.604Z,100.00
2022-11-26T08:23:30.866Z,100.00
2022-11-26T08:26:21.501Z,100.00
2022-11-26T08:28:48.448Z,100.00
2022-11-26T08:31:18.771Z,100.00
2022-11-26T08:33:47.386Z,100.00
2022-11-26T08:36:15.255Z,100.00
2022-11-26T08:38:44.497Z,100.00
2022-11-26T08:41:14.737Z,100.00
2022-11-26T08:44:05.682Z,100.00
2022-11-26T08:46:30.500Z,100.00
2022-11-26T08:48:58.851Z,100.00
2022-11-26T08:51:26.921Z,100.00
2022-11-26T08:53:56.136Z,100.00
2022-11-26T08:56:24.203Z,100.00
2022-11-26T08:58:52.076Z,100.00
2022-11-26T09:01:21.916Z,100.00
2022-11-26T09:03:50.721Z,100.00
2022-11-26T09:06:19.678Z,100.00
2022-11-26T09:09:01.922Z,100.00
2022-11-26T09:11:31.164Z,96.26
2022-11-26T09:13:59.815Z,96.41
2022-11-26T09:16:28.197Z,97.26
2022-11-26T09:18:56.489Z,99.32
2022-11-26T09:21:24.500Z,100.00
2022-11-26T09:23:52.389Z,100.00
2022-11-26T09:26:21.669Z,100.00
2022-11-26T09:28:50.964Z,99.98
2022-11-26T09:31:19.948Z,93.80
2022-11-26T09:33:48.029Z,88.13
2022-11-26T09:36:17.305Z,88.51
2022-11-26T09:38:45.584Z,88.78
2022-11-26T09:41:23.999Z,85.63
2022-11-26T09:44:15.920Z,87.88
2022-11-26T09:47:11.144Z,86.08
2022-11-26T09:49:48.030Z,85.78
2022-11-26T09:52:19.808Z,84.51
2022-11-26T09:54:50.278Z,85.16
2022-11-26T09:57:22.938Z,85.07
2022-11-26T09:59:55.092Z,81.96
2022-11-26T10:02:25.299Z,80.61
2022-11-26T10:04:53.628Z,79.66
2022-11-26T10:07:42.855Z,81.86
2022-11-26T10:10:20.081Z,80.46
2022-11-26T10:13:18.070Z,76.91
2022-11-26T10:15:58.393Z,77.51
2022-11-26T10:18:36.875Z,76.89
2022-11-26T10:21:44.352Z,73.24
2022-11-26T10:24:24.206Z,77.31
2022-11-26T10:26:54.044Z,75.87
2022-11-26T10:29:27.363Z,73.88
2022-11-26T10:32:00.808Z,72.10
2022-11-26T10:34:39.467Z,71.56
2022-11-26T10:37:10.388Z,70.74
2022-11-26T10:39:38.311Z,69.83
2022-11-26T10:42:14.536Z,68.55
2022-11-26T10:44:42.999Z,68.56
2022-11-26T10:47:25.611Z,69.21
2022-11-26T10:49:54.710Z,69.24
2022-11-26T10:52:28.432Z,68.76
2022-11-26T10:55:21.283Z,67.27
2022-11-26T10:57:54.308Z,67.03
2022-11-26T11:00:35.074Z,67.18
2022-11-26T11:03:06.605Z,68.04
2022-11-26T11:05:35.957Z,67.40
2022-11-26T11:08:04.120Z,67.43
2022-11-26T11:10:32.030Z,65.92
2022-11-26T11:13:10.723Z,66.04
2022-11-26T11:15:40.443Z,66.96
2022-11-26T11:18:18.859Z,67.13
2022-11-26T11:20:54.007Z,67.18
2022-11-26T11:23:35.028Z,66.87
2022-11-26T11:26:14.343Z,67.20
2022-11-26T11:28:48.929Z,65.77
2022-11-26T11:31:19.706Z,65.22
2022-11-26T11:33:49.944Z,66.31
2022-11-26T11:36:21.690Z,65.52
2022-11-26T11:38:51.738Z,63.22
2022-11-26T11:41:29.304Z,64.55
2022-11-26T11:44:02.726Z,64.56
2022-11-26T11:46:54.109Z,65.27
2022-11-26T11:49:36.231Z,63.11
2022-11-26T11:52:17.684Z,62.09
2022-11-26T11:54:56.931Z,63.39
2022-11-26T11:57:40.706Z,63.34
2022-11-26T12:00:14.439Z,63.92
2022-11-26T12:03:01.088Z,64.04
2022-11-26T12:05:57.118Z,63.19
2022-11-26T12:08:38.611Z,63.95
2022-11-26T12:11:20.245Z,62.34
2022-11-26T12:13:50.870Z,61.80
2022-11-26T12:16:21.418Z,61.28
2022-11-26T12:18:54.982Z,60.56
2022-11-26T12:21:32.189Z,59.85
2022-11-26T12:24:08.183Z,58.03
2022-11-26T12:26:40.517Z,58.62
2022-11-26T12:29:13.252Z,59.78
2022-11-26T12:31:46.670Z,59.76
2022-11-26T12:34:24.320Z,58.55
2022-11-26T12:36:59.594Z,58.70
2022-11-26T12:39:39.398Z,58.85
2022-11-26T12:42:17.974Z,59.09
2022-11-26T12:44:50.190Z,59.67
2022-11-26T12:47:23.035Z,60.18
2022-11-26T12:50:03.552Z,59.07
2022-11-26T12:52:40.453Z,58.90
2022-11-26T12:55:18.482Z,58.14
2022-11-26T12:57:50.747Z,57.72
2022-11-26T13:00:25.604Z,57.74
2022-11-26T13:02:55.572Z,57.22
2022-11-26T13:05:34.170Z,57.26
2022-11-26T13:08:24.747Z,55.67
2022-11-26T13:11:08.700Z,55.95
2022-11-26T13:13:45.368Z,55.69
2022-11-26T13:16:22.009Z,56.27
2022-11-26T13:18:55.165Z,56.53
2022-11-26T13:21:39.616Z,57.19
2022-11-26T13:24:24.168Z,56.33
2022-11-26T13:27:13.333Z,56.30
2022-11-26T13:30:01.965Z,56.38
2022-11-26T13:32:49.133Z,56.86
2022-11-26T13:35:29.945Z,56.84
2022-11-26T13:38:18.549Z,57.75
2022-11-26T13:41:15.777Z,57.33
2022-11-26T13:44:18.812Z,57.85
2022-11-26T13:46:51.404Z,57.71
2022-11-26T13:49:27.098Z,58.81
2022-11-26T13:52:00.530Z,58.92
2022-11-26T13:54:33.111Z,59.42
2022-11-26T13:57:05.762Z,60.21
2022-11-26T13:59:34.248Z,60.99
2022-11-26T14:02:37.532Z,60.98
2022-11-26T14:05:07.196Z,61.52
2022-11-26T14:07:35.799Z,62.66
2022-11-26T14:10:05.736Z,63.63
2022-11-26T14:13:07.980Z,63.88
2022-11-26T14:15:58.734Z,65.15
2022-11-26T14:19:06.004Z,65.60
2022-11-26T14:22:03.623Z,65.64
2022-11-26T14:24:55.613Z,66.73
2022-11-26T14:27:24.895Z,66.65
2022-11-26T14:29:56.202Z,66.88
2022-11-26T14:32:27.920Z,68.57
2022-11-26T14:34:57.440Z,71.18
2022-11-26T14:37:27.696Z,73.80
2022-11-26T14:39:59.801Z,76.97
2022-11-26T14:42:28.641Z,79.65
2022-11-26T14:45:07.565Z,81.76
2022-11-26T14:47:36.781Z,83.76
2022-11-26T14:50:07.514Z,84.96
2022-11-26T14:52:38.379Z,87.24
2022-11-26T14:55:10.227Z,89.07
2022-11-26T14:57:43.861Z,90.01
2022-11-26T15:00:25.101Z,92.58
2022-11-26T15:02:54.892Z,95.38
2022-11-26T15:05:25.015Z,94.22
2022-11-26T15:08:00.009Z,96.11
2022-11-26T15:10:31.180Z,96.78
2022-11-26T15:13:04.500Z,97.79
2022-11-26T15:15:32.340Z,99.75
2022-11-26T15:18:06.488Z,100.00
2022-11-26T15:20:35.087Z,100.00
2022-11-26T15:23:06.696Z,100.00
2022-11-26T15:25:37.386Z,100.00
2022-11-26T15:28:07.220Z,100.00
2022-11-26T15:30:37.363Z,100.00
2022-11-26T15:33:14.435Z,100.00
2022-11-26T15:35:43.774Z,100.00
2022-11-26T15:38:15.548Z,100.00
2022-11-26T15:40:48.702Z,100.00
2022-11-26T15:43:22.409Z,100.00
2022-11-26T15:45:51.650Z,100.00
2022-11-26T15:48:50.518Z,100.00
2022-11-26T15:51:16.467Z,100.00
2022-11-26T15:53:47.971Z,100.00
2022-11-26T15:56:19.268Z,100.00
2022-11-26T15:58:50.821Z,100.00
2022-11-26T16:01:22.079Z,100.00
2022-11-26T16:03:53.061Z,100.00
2022-11-26T16:06:31.082Z,100.00
2022-11-26T16:09:02.470Z,100.00
2022-11-26T16:11:33.944Z,100.00
2022-11-26T16:14:23.828Z,100.00
2022-11-26T16:16:52.864Z,100.00
2022-11-26T16:19:23.059Z,100.00
2022-11-26T16:21:53.392Z,100.00
2022-11-26T16:24:27.678Z,100.00
2022-11-26T16:26:58.588Z,100.00
2022-11-26T16:29:27.373Z,100.00
2022-11-26T16:31:55.218Z,100.00
2022-11-26T16:34:26.888Z,100.00
2022-11-26T16:37:02.190Z,100.00
2022-11-26T16:39:33.796Z,100.00
2022-11-26T16:42:10.082Z,100.00
2022-11-26T16:44:38.156Z,100.00
2022-11-26T16:47:06.376Z,100.00
2022-11-26T16:49:35.782Z,100.00
2022-11-26T16:52:03.587Z,100.00
2022-11-26T16:54:31.474Z,100.00
2022-11-26T16:56:59.337Z,100.00
2022-11-26T16:59:29.897Z,100.00
2022-11-26T17:01:57.773Z,100.00
2022-11-26T17:04:25.656Z,100.00
2022-11-26T17:06:54.884Z,100.00
2022-11-26T17:09:22.723Z,100.00
2022-11-26T17:11:50.569Z,100.00
2022-11-26T17:14:18.392Z,100.00
2022-11-26T17:16:46.385Z,100.00
2022-11-26T17:19:16.384Z,100.00
2022-11-26T17:21:45.038Z,100.00
2022-11-26T17:24:16.551Z,100.00
2022-11-26T17:26:46.891Z,100.00
2022-11-26T17:29:14.794Z,100.00
2022-11-26T17:31:42.647Z,100.00
2022-11-26T17:34:10.510Z,100.00
2022-11-26T17:36:38.461Z,100.00
2022-11-26T17:39:06.273Z,100.00
2022-11-26T17:41:35.423Z,100.00
2022-11-26T17:44:03.455Z,100.00
2022-11-26T17:46:42.891Z,100.00
2022-11-26T17:49:19.510Z,100.00
2022-11-26T17:51:47.382Z,100.00
2022-11-26T17:54:15.242Z,100.00
2022-11-26T17:56:44.501Z,100.00
2022-11-26T17:59:15.535Z,100.00
2022-11-26T18:01:46.229Z,100.00
2022-11-26T18:04:14.159Z,100.00
2022-11-26T18:06:54.588Z,100.00
2022-11-26T18:09:22.447Z,100.00
2022-11-26T18:11:53.422Z,100.00
2022-11-26T18:14:22.180Z,100.00
2022-11-26T18:16:50.862Z,100.00
2022-11-26T18:19:21.797Z,100.00
2022-11-26T18:21:50.919Z,100.00
2022-11-26T18:24:18.882Z,100.00
2022-11-26T18:26:47.067Z,100.00
2022-11-26T18:29:16.246Z,100.00
2022-11-26T18:31:44.268Z,100.00
2022-11-26T18:34:12.088Z,100.00
2022-11-26T18:36:39.997Z,100.00
2022-11-26T18:39:08.060Z,100.00
2022-11-26T18:41:35.992Z,100.00
2022-11-26T18:44:04.508Z,100.00
2022-11-26T18:46:33.823Z,100.00
2022-11-26T18:49:01.718Z,100.00
2022-11-26T18:51:29.743Z,100.00
2022-11-26T18:53:57.615Z,100.00
2022-11-26T18:56:25.623Z,100.00
2022-11-26T18:58:53.865Z,100.00
2022-11-26T19:01:23.525Z,100.00
2022-11-26T19:03:53.163Z,100.00
2022-11-26T19:06:22.620Z,100.00
2022-11-26T19:08:51.739Z,100.00
2022-11-26T19:11:21.996Z,100.00
2022-11-26T19:13:49.882Z,100.00
2022-11-26T19:16:19.923Z,100.00
2022-11-26T19:18:48.819Z,100.00
2022-11-26T19:21:24.305Z,100.00
2022-11-26T19:23:52.743Z,100.00
2022-11-26T19:26:20.815Z,100.00
2022-11-26T19:28:49.562Z,100.00
2022-11-26T19:31:20.298Z,100.00
2022-11-26T19:33:52.766Z,100.00
2022-11-26T19:36:22.492Z,100.00
2022-11-26T19:38:55.576Z,100.00
2022-11-26T19:41:25.750Z,100.00
2022-11-26T19:43:54.552Z,100.00
2022-11-26T19:46:24.108Z,100.00
2022-11-26T19:48:53.188Z,100.00
2022-11-26T19:51:24.138Z,100.00
2022-11-26T19:53:54.349Z,100.00
2022-11-26T19:56:24.707Z,100.00
2022-11-26T19:58:54.745Z,100.00
2022-11-26T20:01:23.378Z,100.00
2022-11-26T20:03:51.518Z,100.00
2022-11-26T20:06:22.362Z,100.00
2022-11-26T20:08:51.613Z,100.00
2022-11-26T20:11:20.310Z,100.00
2022-11-26T20:13:49.786Z,100.00
2022-11-26T20:16:20.054Z,100.00
2022-11-26T20:18:48.394Z,100.00
2022-11-26T20:21:19.770Z,100.00
2022-11-26T20:23:48.617Z,100.00
2022-11-26T20:26:21.207Z,100.00
2022-11-26T20:28:50.460Z,100.00
2022-11-26T20:31:23.318Z,100.00
2022-11-26T20:33:52.625Z,100.00
2022-11-26T20:36:22.841Z,100.00
2022-11-26T20:38:53.106Z,100.00
2022-11-26T20:41:23.631Z,100.00
2022-11-26T20:43:57.961Z,100.00
2022-11-26T20:46:27.755Z,100.00
2022-11-26T20:48:56.052Z,100.00
2022-11-26T20:51:24.792Z,100.00
2022-11-26T20:53:53.736Z,100.00
2022-11-26T20:56:23.421Z,100.00
2022-11-26T20:58:52.421Z,100.00
2022-11-26T21:01:22.706Z,100.00
2022-11-26T21:03:51.617Z,100.00
2022-11-26T21:06:25.946Z,100.00
2022-11-26T21:08:57.830Z,100.00
2022-11-26T21:11:27.034Z,100.00
2022-11-26T21:13:54.922Z,100.00
2022-11-26T21:16:23.427Z,100.00
2022-11-26T21:18:53.677Z,100.00
2022-11-26T21:21:21.886Z,100.00
2022-11-26T21:23:49.721Z,100.00
2022-11-26T21:26:19.493Z,100.00
2022-11-26T21:28:53.902Z,100.00
2022-11-26T21:31:22.587Z,100.00
2022-11-26T21:33:56.646Z,100.00
2022-11-26T21:36:25.138Z,100.00
2022-11-26T21:38:52.957Z,100.00
2022-11-26T21:41:21.467Z,100.00
2022-11-26T21:43:50.249Z,100.00
2022-11-26T21:46:22.035Z,100.00
2022-11-26T21:48:49.962Z,100.00
2022-11-26T21:51:18.829Z,100.00
2022-11-26T21:53:47.877Z,100.00
2022-11-26T21:56:19.048Z,100.00
2022-11-26T21:58:47.052Z,100.00
2022-11-26T22:01:17.445Z,100.00
2022-11-26T22:03:49.442Z,100.00
2022-11-26T22:06:18.920Z,100.00
2022-11-26T22:08:47.812Z,100.00
2022-11-26T22:11:18.074Z,100.00
2022-11-26T22:13:46.257Z,100.00
2022-11-26T22:16:16.450Z,100.00
2022-11-26T22:18:46.989Z,100.00
2022-11-26T22:21:18.018Z,100.00
2022-11-26T22:23:46.323Z,100.00
2022-11-26T22:26:14.706Z,100.00
2022-11-26T22:28:42.666Z,100.00
2022-11-26T22:31:12.774Z,100.00
2022-11-26T22:33:41.108Z,100.00
2022-11-26T22:36:10.944Z,100.00
2022-11-26T22:38:40.853Z,100.00
2022-11-26T22:41:13.402Z,100.00
2022-11-26T22:43:42.029Z,100.00
2022-11-26T22:46:12.753Z,100.00
2022-11-26T22:48:40.842Z,100.00
2022-11-26T22:51:10.704Z,100.00
2022-11-26T22:53:38.663Z,100.00
2022-11-26T22:56:07.360Z,100.00
2022-11-26T22:58:35.964Z,100.00
2022-11-26T23:01:05.806Z,100.00
2022-11-26T23:03:35.873Z,100.00
2022-11-26T23:06:05.790Z,100.00
2022-11-26T23:08:35.725Z,100.00
2022-11-26T23:11:07.145Z,100.00
2022-11-26T23:13:35.261Z,100.00
2022-11-26T23:16:03.187Z,100.00
2022-11-26T23:18:31.079Z,100.00
2022-11-26T23:21:06.832Z,100.00
2022-11-26T23:23:37.220Z,100.00
2022-11-26T23:26:06.256Z,100.00
2022-11-26T23:28:35.574Z,100.00
2022-11-26T23:31:04.468Z,100.00
2022-11-26T23:33:33.330Z,100.00
2022-11-26T23:36:01.241Z,100.00
2022-11-26T23:38:29.199Z,100.00
2022-11-26T23:41:00.490Z,100.00
2022-11-26T23:43:28.553Z,100.00
2022-11-26T23:46:02.205Z,100.00
2022-11-26T23:48:30.226Z,100.00
2022-11-26T23:50:58.167Z,100.00
2022-11-26T23:53:26.584Z,100.00
2022-11-26T23:55:54.610Z,100.00
2022-11-26T23:58:23.814Z,100.00
